createdAt,value
2017-11-30T00:00:47.754Z,31.97
2017-11-30T00:03:13.918Z,32.00
2017-11-30T00:05:40.830Z,34.10
2017-11-30T00:08:07.055Z,31.30
2017-11-30T00:10:33.247Z,31.83
2017-11-30T00:12:59.426Z,32.97
2017-11-30T00:15:25.625Z,33.57
2017-11-30T00:17:52.030Z,32.50
2017-11-30T00:20:18.210Z,34.40
2017-11-30T00:22:44.434Z,34.37
2017-11-30T00:25:10.674Z,33.50
2017-11-30T00:27:36.857Z,33.70
2017-11-30T00:30:03.088Z,34.80
2017-11-30T00:32:29.287Z,30.87
2017-11-30T00:34:55.466Z,31.73
2017-11-30T00:37:22.412Z,32.87
2017-11-30T00:39:49.334Z,29.30
2017-11-30T00:42:27.931Z,32.23
2017-11-30T00:44:54.111Z,33.13
2017-11-30T00:47:21.060Z,33.67
2017-11-30T00:49:47.251Z,32.10
2017-11-30T00:52:13.429Z,34.00
2017-11-30T00:54:39.598Z,35.60
2017-11-30T00:57:05.819Z,30.93
2017-11-30T00:59:32.766Z,32.60
2017-11-30T01:01:59.764Z,32.70
2017-11-30T01:04:25.986Z,30.70
2017-11-30T01:06:52.161Z,31.67
2017-11-30T01:09:18.361Z,31.30
2017-11-30T01:11:44.612Z,31.13
2017-11-30T01:14:10.807Z,33.37
2017-11-30T01:16:37.206Z,28.83
2017-11-30T01:19:03.684Z,30.37
2017-11-30T01:21:29.853Z,31.13
2017-11-30T01:23:56.793Z,29.07
2017-11-30T01:26:22.996Z,30.07
2017-11-30T01:28:49.178Z,29.53
2017-11-30T01:31:15.354Z,29.20
2017-11-30T01:33:42.291Z,29.70
2017-11-30T01:36:09.238Z,31.10
2017-11-30T01:38:35.464Z,30.10
2017-11-30T01:41:01.665Z,32.50
2017-11-30T01:43:27.827Z,33.00
2017-11-30T01:45:53.996Z,33.17
2017-11-30T01:48:20.931Z,33.83
2017-11-30T01:50:47.852Z,30.93
2017-11-30T01:53:14.066Z,31.60
2017-11-30T01:55:40.283Z,30.73
2017-11-30T01:58:06.458Z,29.30
2017-11-30T02:00:32.663Z,29.70
2017-11-30T02:02:58.926Z,31.17
2017-11-30T02:05:25.110Z,30.57
2017-11-30T02:07:51.290Z,31.17
2017-11-30T02:10:17.490Z,28.83
2017-11-30T02:12:43.697Z,30.53
2017-11-30T02:15:10.627Z,29.43
2017-11-30T02:17:36.832Z,27.90
2017-11-30T02:20:03.204Z,28.23
2017-11-30T02:22:30.109Z,27.70
2017-11-30T02:24:56.301Z,27.83
2017-11-30T02:27:23.206Z,28.17
2017-11-30T02:29:49.393Z,28.43
2017-11-30T02:32:16.306Z,27.67
2017-11-30T02:34:42.474Z,27.83
2017-11-30T02:37:08.667Z,27.47
2017-11-30T02:39:34.865Z,28.13
2017-11-30T02:42:01.055Z,27.03
2017-11-30T02:44:27.974Z,28.10
2017-11-30T02:46:54.179Z,26.57
2017-11-30T02:49:20.355Z,26.43
2017-11-30T02:51:46.513Z,24.67
2017-11-30T02:54:13.445Z,25.53
2017-11-30T02:56:39.650Z,27.30
2017-11-30T02:59:05.802Z,27.00
2017-11-30T03:01:32.034Z,27.30
2017-11-30T03:03:58.272Z,28.87
2017-11-30T03:06:24.440Z,38.53
2017-11-30T03:08:51.366Z,38.47
2017-11-30T03:11:17.527Z,29.20
2017-11-30T03:13:43.722Z,28.73
2017-11-30T03:16:09.954Z,28.40
2017-11-30T03:18:36.134Z,27.80
2017-11-30T03:21:02.557Z,29.07
2017-11-30T03:23:29.491Z,29.00
2017-11-30T03:25:55.679Z,28.97
2017-11-30T03:28:21.882Z,28.00
2017-11-30T03:30:48.822Z,27.60
2017-11-30T03:33:15.734Z,27.13
2017-11-30T03:35:41.907Z,28.30
2017-11-30T03:38:08.836Z,28.67
2017-11-30T03:40:35.016Z,30.37
2017-11-30T03:43:01.192Z,28.60
2017-11-30T03:45:27.389Z,28.57
2017-11-30T03:47:53.572Z,28.07
2017-11-30T03:50:19.770Z,28.40
2017-11-30T03:52:45.970Z,27.90
2017-11-30T03:55:12.882Z,28.37
2017-11-30T03:57:39.045Z,25.70
2017-11-30T04:00:05.982Z,25.83
2017-11-30T04:02:32.168Z,26.33
2017-11-30T04:04:59.230Z,25.60
2017-11-30T04:07:25.425Z,25.93
2017-11-30T04:09:51.610Z,25.10
2017-11-30T04:12:17.809Z,24.50
2017-11-30T04:14:44.793Z,25.90
2017-11-30T04:17:10.966Z,25.10
2017-11-30T04:19:37.875Z,25.30
2017-11-30T04:22:04.251Z,28.27
2017-11-30T04:24:31.169Z,30.73
2017-11-30T04:26:57.387Z,27.97
2017-11-30T04:29:23.574Z,27.90
2017-11-30T04:31:50.510Z,29.50
2017-11-30T04:34:16.671Z,28.80
2017-11-30T04:36:42.874Z,31.93
2017-11-30T04:39:09.849Z,27.93
2017-11-30T04:41:36.022Z,27.93
2017-11-30T04:44:02.277Z,29.00
2017-11-30T04:46:28.490Z,30.30
2017-11-30T04:48:55.463Z,28.07
2017-11-30T04:51:21.671Z,26.70
2017-11-30T04:53:47.865Z,25.73
2017-11-30T04:56:14.798Z,27.43
2017-11-30T04:58:41.730Z,25.37
2017-11-30T05:01:07.920Z,25.37
2017-11-30T05:03:34.102Z,25.23
2017-11-30T05:06:02.268Z,25.90
2017-11-30T05:08:29.985Z,24.30
2017-11-30T05:10:56.151Z,22.90
2017-11-30T05:13:22.350Z,26.27
2017-11-30T05:15:48.541Z,23.83
2017-11-30T05:18:14.733Z,27.07
2017-11-30T05:20:40.918Z,29.87
2017-11-30T05:23:07.283Z,30.27
2017-11-30T05:25:34.190Z,32.23
2017-11-30T05:28:01.244Z,31.43
2017-11-30T05:30:27.418Z,31.00
2017-11-30T05:32:54.318Z,30.93
2017-11-30T05:35:20.519Z,35.30
2017-11-30T05:37:46.693Z,32.53
2017-11-30T05:40:12.871Z,32.30
2017-11-30T05:42:39.109Z,31.90
2017-11-30T05:45:06.060Z,35.77
2017-11-30T05:47:32.986Z,32.97
2017-11-30T05:49:59.212Z,31.87
2017-11-30T05:52:25.381Z,31.10
2017-11-30T05:54:52.307Z,36.10
2017-11-30T05:57:20.153Z,34.77
2017-11-30T05:59:46.322Z,34.90
2017-11-30T06:02:13.242Z,34.67
2017-11-30T06:04:40.236Z,35.77
2017-11-30T06:07:06.495Z,34.90
2017-11-30T06:09:32.680Z,31.05
2017-11-30T06:11:58.882Z,31.57
2017-11-30T06:14:25.085Z,33.23
2017-11-30T06:16:51.274Z,33.27
2017-11-30T06:19:18.288Z,31.77
2017-11-30T06:21:44.499Z,33.42
2017-11-30T06:24:10.807Z,34.73
2017-11-30T06:26:37.746Z,38.80
2017-11-30T06:29:03.934Z,39.67
2017-11-30T06:31:30.129Z,37.30
2017-11-30T06:33:56.357Z,35.43
2017-11-30T06:36:22.564Z,38.27
2017-11-30T06:38:48.777Z,38.63
2017-11-30T06:41:15.015Z,37.50
2017-11-30T06:43:41.206Z,35.10
2017-11-30T06:46:08.126Z,30.87
2017-11-30T06:48:34.354Z,33.33
2017-11-30T06:51:00.633Z,30.83
2017-11-30T06:53:27.566Z,29.03
2017-11-30T06:55:53.807Z,29.70
2017-11-30T06:58:20.047Z,30.53
2017-11-30T07:00:46.984Z,31.03
2017-11-30T07:03:13.213Z,30.03
2017-11-30T07:05:40.153Z,29.83
2017-11-30T07:08:06.557Z,32.57
2017-11-30T07:10:32.764Z,30.23
2017-11-30T07:12:59.684Z,30.17
2017-11-30T07:15:25.874Z,28.47
2017-11-30T07:17:52.085Z,27.40
2017-11-30T07:20:19.026Z,28.77
2017-11-30T07:22:45.962Z,25.87
2017-11-30T07:25:12.225Z,28.03
2017-11-30T07:27:38.438Z,30.10
2017-11-30T07:30:04.639Z,29.37
2017-11-30T07:32:30.854Z,29.03
2017-11-30T07:34:57.064Z,26.30
2017-11-30T07:37:24.004Z,27.57
2017-11-30T07:39:50.975Z,29.03
2017-11-30T07:42:17.258Z,27.97
2017-11-30T07:44:44.436Z,30.63
2017-11-30T07:47:10.626Z,30.00
2017-11-30T07:49:36.797Z,30.23
2017-11-30T07:52:03.741Z,28.53
2017-11-30T07:54:30.710Z,29.10
2017-11-30T07:56:57.654Z,28.83
2017-11-30T07:59:23.839Z,29.00
2017-11-30T08:01:50.032Z,26.60
2017-11-30T08:04:16.963Z,30.17
2017-11-30T08:06:43.906Z,26.27
2017-11-30T08:09:10.922Z,25.40
2017-11-30T08:11:37.100Z,24.07
2017-11-30T08:14:04.043Z,23.57
2017-11-30T08:16:30.258Z,26.27
2017-11-30T08:18:57.190Z,26.33
2017-11-30T08:21:23.359Z,24.77
2017-11-30T08:23:49.693Z,24.70
2017-11-30T08:26:16.331Z,24.00
2017-11-30T08:28:42.683Z,24.57
2017-11-30T08:31:09.112Z,25.20
2017-11-30T08:33:35.455Z,26.50
2017-11-30T08:36:01.766Z,23.50
2017-11-30T08:38:28.049Z,23.80
2017-11-30T08:40:55.015Z,24.47
2017-11-30T08:43:21.197Z,24.30
2017-11-30T08:45:47.428Z,25.70
2017-11-30T08:48:13.630Z,24.07
2017-11-30T08:50:39.831Z,24.73
2017-11-30T08:53:06.778Z,27.97
2017-11-30T08:55:33.730Z,24.60
2017-11-30T08:57:59.915Z,27.77
2017-11-30T09:00:26.173Z,25.87
2017-11-30T09:02:52.371Z,24.83
2017-11-30T09:05:18.569Z,28.40
2017-11-30T09:07:44.758Z,24.27
2017-11-30T09:10:11.101Z,23.40
2017-11-30T09:12:37.278Z,24.00
2017-11-30T09:15:04.235Z,27.80
2017-11-30T09:17:31.166Z,28.40
2017-11-30T09:19:57.374Z,27.33
2017-11-30T09:22:23.604Z,30.50
2017-11-30T09:24:49.827Z,27.37
2017-11-30T09:27:16.138Z,29.70
2017-11-30T09:29:42.377Z,29.30
2017-11-30T09:32:08.569Z,28.03
2017-11-30T09:34:35.506Z,30.03
2017-11-30T09:37:01.732Z,27.73
2017-11-30T09:39:27.923Z,26.90
2017-11-30T09:41:54.106Z,30.03
2017-11-30T09:44:20.318Z,28.10
2017-11-30T09:46:46.530Z,26.80
2017-11-30T09:49:12.722Z,25.77
2017-11-30T09:51:38.951Z,24.00
2017-11-30T09:54:05.909Z,27.90
2017-11-30T09:56:32.125Z,24.50
2017-11-30T09:58:58.357Z,26.07
2017-11-30T10:01:24.585Z,24.17
2017-11-30T10:03:50.773Z,22.80
2017-11-30T10:06:17.764Z,24.00
2017-11-30T10:08:43.950Z,24.00
2017-11-30T10:11:10.963Z,23.23
2017-11-30T10:13:37.180Z,22.77
2017-11-30T10:16:03.352Z,23.47
2017-11-30T10:18:29.530Z,23.67
2017-11-30T10:20:55.710Z,24.67
2017-11-30T10:26:03.999Z,24.40
2017-11-30T10:28:30.216Z,23.33
2017-11-30T10:30:57.123Z,24.00
2017-11-30T10:33:23.351Z,22.60
2017-11-30T10:35:49.534Z,24.50
2017-11-30T10:38:15.702Z,23.10
2017-11-30T10:40:41.948Z,23.83
2017-11-30T10:43:08.178Z,24.80
2017-11-30T10:45:34.379Z,24.03
2017-11-30T10:48:00.567Z,25.00
2017-11-30T10:50:26.798Z,22.80
2017-11-30T10:52:53.033Z,26.17
2017-11-30T10:55:19.238Z,22.27
2017-11-30T10:57:45.419Z,22.67
2017-11-30T11:00:12.350Z,24.50
2017-11-30T11:02:38.568Z,25.33
2017-11-30T11:05:04.742Z,21.83
2017-11-30T11:07:31.690Z,23.50
2017-11-30T11:09:57.887Z,23.50
2017-11-30T11:12:24.289Z,22.30
2017-11-30T11:14:50.464Z,19.57
2017-11-30T11:17:16.697Z,21.50
2017-11-30T11:19:42.944Z,25.77
2017-11-30T11:22:09.207Z,21.00
2017-11-30T11:24:35.457Z,21.07
2017-11-30T11:27:01.658Z,21.20
2017-11-30T11:29:28.098Z,22.10
2017-11-30T11:31:54.293Z,22.47
2017-11-30T11:34:20.463Z,23.30
2017-11-30T11:36:46.635Z,21.30
2017-11-30T11:39:12.851Z,23.70
2017-11-30T11:41:39.781Z,21.83
2017-11-30T11:44:05.975Z,22.23
2017-11-30T11:46:32.926Z,23.70
2017-11-30T11:48:59.099Z,22.47
2017-11-30T11:51:25.305Z,21.33
2017-11-30T11:53:51.615Z,21.70
2017-11-30T11:56:17.810Z,20.27
2017-11-30T11:58:43.997Z,21.43
2017-11-30T12:01:11.039Z,20.40
2017-11-30T12:03:37.231Z,18.10
2017-11-30T12:06:04.142Z,18.83
2017-11-30T12:08:30.334Z,16.60
2017-11-30T12:10:57.323Z,18.80
2017-11-30T12:13:23.888Z,19.80
2017-11-30T12:15:50.094Z,20.90
2017-11-30T12:18:16.304Z,18.20
2017-11-30T12:20:42.514Z,22.50
2017-11-30T12:23:08.698Z,21.17
2017-11-30T12:25:34.870Z,21.07
2017-11-30T12:28:01.045Z,20.47
2017-11-30T12:30:28.980Z,19.90
2017-11-30T12:32:55.174Z,20.60
2017-11-30T12:35:21.350Z,21.47
2017-11-30T12:37:47.543Z,21.03
2017-11-30T12:40:13.748Z,21.33
2017-11-30T12:42:40.687Z,20.80
2017-11-30T12:45:07.632Z,22.07
2017-11-30T12:47:34.565Z,21.97
2017-11-30T12:50:00.768Z,21.00
2017-11-30T12:52:28.635Z,22.37
2017-11-30T12:54:54.832Z,21.00
2017-11-30T12:57:21.008Z,19.07
2017-11-30T12:59:47.220Z,19.83
2017-11-30T13:02:13.392Z,18.20
2017-11-30T13:04:39.562Z,18.17
2017-11-30T13:07:06.505Z,18.20
2017-11-30T13:09:32.719Z,19.63
2017-11-30T13:11:58.931Z,19.93
2017-11-30T13:14:25.201Z,18.03
2017-11-30T13:16:52.124Z,18.40
2017-11-30T13:19:18.298Z,18.10
2017-11-30T13:21:44.481Z,18.07
2017-11-30T13:24:10.717Z,19.33
2017-11-30T13:26:36.924Z,17.90
2017-11-30T13:29:03.131Z,21.07
2017-11-30T13:31:29.438Z,19.93
2017-11-30T13:33:55.596Z,16.70
2017-11-30T13:36:22.533Z,17.63
2017-11-30T13:38:49.453Z,18.00
2017-11-30T13:41:15.638Z,16.70
2017-11-30T13:43:42.573Z,17.47
2017-11-30T13:46:09.500Z,16.97
2017-11-30T13:48:35.697Z,18.00
2017-11-30T13:51:01.903Z,18.20
2017-11-30T13:53:28.823Z,16.85
2017-11-30T13:55:54.997Z,15.90
2017-11-30T13:58:21.187Z,18.17
2017-11-30T14:00:47.356Z,17.07
2017-11-30T14:03:14.290Z,16.30
2017-11-30T14:05:40.481Z,15.87
2017-11-30T14:08:06.648Z,15.33
2017-11-30T14:10:32.842Z,22.60
2017-11-30T14:12:59.013Z,17.17
2017-11-30T14:15:25.256Z,16.30
2017-11-30T14:17:51.441Z,16.57
2017-11-30T14:20:17.621Z,17.80
2017-11-30T14:22:44.541Z,17.43
2017-11-30T14:25:10.783Z,18.20
2017-11-30T14:27:36.965Z,18.60
2017-11-30T14:30:03.900Z,18.80
2017-11-30T14:32:30.113Z,18.83
2017-11-30T14:34:56.298Z,16.10
2017-11-30T14:37:22.473Z,16.90
2017-11-30T14:39:48.646Z,17.30
2017-11-30T14:42:15.577Z,18.63
2017-11-30T14:44:41.746Z,17.60
2017-11-30T14:47:07.916Z,18.00
2017-11-30T14:49:34.117Z,19.97
2017-11-30T14:52:00.354Z,16.07
2017-11-30T14:54:26.480Z,18.33
2017-11-30T14:56:52.660Z,18.37
2017-11-30T14:59:18.829Z,18.00
2017-11-30T15:01:45.017Z,16.10
2017-11-30T15:04:11.214Z,15.73
2017-11-30T15:06:37.380Z,15.50
2017-11-30T15:09:04.298Z,17.10
2017-11-30T15:11:30.481Z,17.57
2017-11-30T15:13:57.417Z,15.90
2017-11-30T15:16:23.822Z,16.10
2017-11-30T15:18:49.995Z,17.53
2017-11-30T15:21:16.176Z,15.77
2017-11-30T15:23:43.098Z,17.07
2017-11-30T15:26:09.309Z,18.10
2017-11-30T15:28:35.514Z,17.07
2017-11-30T15:31:01.685Z,18.50
2017-11-30T15:33:27.998Z,21.63
2017-11-30T15:35:54.206Z,19.27
2017-11-30T15:38:20.405Z,18.87
2017-11-30T15:40:47.317Z,17.73
2017-11-30T15:43:13.489Z,18.23
2017-11-30T15:45:39.728Z,19.53
2017-11-30T15:48:06.653Z,19.50
2017-11-30T15:50:32.841Z,20.03
2017-11-30T15:52:59.055Z,22.90
2017-11-30T15:55:25.249Z,19.80
2017-11-30T15:57:51.456Z,20.67
2017-11-30T16:00:17.629Z,18.30
2017-11-30T16:02:43.811Z,20.77
2017-11-30T16:05:10.011Z,20.63
2017-11-30T16:07:36.196Z,20.37
2017-11-30T16:10:02.369Z,21.63
2017-11-30T16:12:28.540Z,21.80
2017-11-30T16:14:54.725Z,22.43
2017-11-30T16:17:21.009Z,21.20
2017-11-30T16:19:47.181Z,22.83
2017-11-30T16:22:13.426Z,25.50
2017-11-30T16:24:39.633Z,22.37
2017-11-30T16:27:05.801Z,23.50
2017-11-30T16:29:31.965Z,21.40
2017-11-30T16:31:58.163Z,22.43
2017-11-30T16:34:24.406Z,21.00
2017-11-30T16:36:51.353Z,24.00
2017-11-30T16:39:17.605Z,21.90
2017-11-30T16:41:44.549Z,24.67
2017-11-30T16:44:11.561Z,23.07
2017-11-30T16:46:37.794Z,23.83
2017-11-30T16:49:04.030Z,25.63
2017-11-30T16:51:30.244Z,24.03
2017-11-30T16:53:56.482Z,25.00
2017-11-30T16:56:22.889Z,23.23
2017-11-30T16:58:49.953Z,23.03
2017-11-30T17:01:16.741Z,25.37
2017-11-30T17:03:43.033Z,23.93
2017-11-30T17:06:11.140Z,24.80
2017-11-30T17:08:38.253Z,25.90
2017-11-30T17:11:05.437Z,23.80
2017-11-30T17:13:32.693Z,24.47
2017-11-30T17:15:59.146Z,24.50
2017-11-30T17:18:25.467Z,24.97
2017-11-30T17:20:51.712Z,23.63
2017-11-30T17:23:18.795Z,23.40
2017-11-30T17:25:45.079Z,22.73
2017-11-30T17:28:11.324Z,25.10
2017-11-30T17:30:38.405Z,23.60
2017-11-30T17:33:04.600Z,24.50
2017-11-30T17:35:30.817Z,22.90
2017-11-30T17:37:57.829Z,25.13
2017-11-30T17:40:24.085Z,22.97
2017-11-30T17:42:50.312Z,23.60
2017-11-30T17:45:16.559Z,23.00
2017-11-30T17:47:42.764Z,23.10
2017-11-30T17:50:08.944Z,24.10
2017-11-30T17:52:36.229Z,29.10
2017-11-30T17:55:02.771Z,25.20
2017-11-30T17:57:29.217Z,25.40
2017-11-30T17:59:57.168Z,23.97
2017-11-30T18:02:23.490Z,22.17
2017-11-30T18:04:50.457Z,24.20
2017-11-30T18:07:17.688Z,24.90
2017-11-30T18:09:43.988Z,24.60
2017-11-30T18:12:12.715Z,23.30
2017-11-30T18:14:38.951Z,24.77
2017-11-30T18:17:05.939Z,23.13
2017-11-30T18:19:32.988Z,24.70
2017-11-30T18:22:00.169Z,24.10
2017-11-30T18:24:26.497Z,28.33
2017-11-30T18:26:52.783Z,28.03
2017-11-30T18:29:20.106Z,26.17
2017-11-30T18:31:47.254Z,25.47
2017-11-30T18:34:14.248Z,26.00
2017-11-30T18:36:40.631Z,23.10
2017-11-30T18:39:06.948Z,25.53
2017-11-30T18:41:33.920Z,22.97
2017-11-30T18:44:00.193Z,26.37
2017-11-30T18:46:26.436Z,30.63
2017-11-30T18:48:52.685Z,27.90
2017-11-30T18:51:18.966Z,24.00
2017-11-30T18:53:45.261Z,25.50
2017-11-30T18:56:11.503Z,24.80
2017-11-30T18:58:40.218Z,24.50
2017-11-30T19:01:07.167Z,25.70
2017-11-30T19:03:34.193Z,23.70
2017-11-30T19:06:00.574Z,21.30
2017-11-30T19:08:27.055Z,26.53
2017-11-30T19:10:53.457Z,25.97
2017-11-30T19:13:21.354Z,26.60
2017-11-30T19:15:47.687Z,24.23
2017-11-30T19:18:13.941Z,24.20
2017-11-30T19:20:40.470Z,26.13
2017-11-30T19:23:06.732Z,25.20
2017-11-30T19:25:33.724Z,26.13
2017-11-30T19:28:00.826Z,26.50
2017-11-30T19:30:28.057Z,25.17
2017-11-30T19:32:55.013Z,25.00
2017-11-30T19:35:21.301Z,26.40
2017-11-30T19:37:47.736Z,23.83
2017-11-30T19:40:15.906Z,25.00
2017-11-30T19:42:42.328Z,23.63
2017-11-30T19:45:08.658Z,23.97
2017-11-30T19:47:34.883Z,22.60
2017-11-30T19:50:01.862Z,24.43
2017-11-30T19:52:28.077Z,23.67
2017-11-30T19:54:54.356Z,25.20
2017-11-30T19:57:22.631Z,22.80
2017-11-30T19:59:49.168Z,22.90
2017-11-30T20:02:15.426Z,23.80
2017-11-30T20:04:41.815Z,23.10
2017-11-30T20:07:08.137Z,21.87
2017-11-30T20:09:34.414Z,20.90
2017-11-30T20:12:01.563Z,21.20
2017-11-30T20:14:28.533Z,22.10
2017-11-30T20:16:55.572Z,22.20
2017-11-30T20:19:22.614Z,21.30
2017-11-30T20:21:48.907Z,21.17
2017-11-30T20:24:15.152Z,20.73
2017-11-30T20:26:41.480Z,20.40
2017-11-30T20:29:07.685Z,21.77
2017-11-30T20:31:33.876Z,22.27
2017-11-30T20:34:00.109Z,19.33
2017-11-30T20:36:26.352Z,20.80
2017-11-30T20:38:53.424Z,19.93
2017-11-30T20:41:20.394Z,20.33
2017-11-30T20:43:46.684Z,20.87
2017-11-30T20:46:13.066Z,20.80
2017-11-30T20:48:40.266Z,21.77
2017-11-30T20:51:06.513Z,20.50
2017-11-30T20:53:32.815Z,21.83
2017-11-30T20:55:59.891Z,20.60
2017-11-30T20:58:28.901Z,19.50
2017-11-30T21:00:55.505Z,18.87
2017-11-30T21:03:23.902Z,20.53
2017-11-30T21:05:50.242Z,20.27
2017-11-30T21:08:17.252Z,20.33
2017-11-30T21:13:50.510Z,19.20
2017-11-30T21:16:16.692Z,22.40
2017-11-30T21:37:16.776Z,20.47
2017-11-30T21:39:44.461Z,19.90
2017-11-30T21:42:10.663Z,19.10
2017-11-30T21:44:36.902Z,20.50
2017-11-30T21:47:03.077Z,20.23
2017-11-30T21:52:32.248Z,18.23
2017-11-30T21:54:58.400Z,18.53
2017-11-30T21:57:24.568Z,19.50
2017-11-30T21:59:50.767Z,21.17
2017-11-30T22:02:16.916Z,17.57
2017-11-30T22:04:44.720Z,18.70
2017-11-30T22:07:17.953Z,21.93
2017-11-30T22:09:44.133Z,21.33
2017-11-30T22:12:10.321Z,21.10
2017-11-30T22:14:36.521Z,20.43
2017-11-30T22:17:02.685Z,21.10
2017-11-30T22:19:28.865Z,22.23
2017-11-30T22:21:55.068Z,22.67
2017-11-30T22:24:21.224Z,21.90
2017-11-30T22:26:47.420Z,20.77
2017-11-30T22:29:13.640Z,23.03
2017-11-30T22:31:39.800Z,21.90
2017-11-30T22:34:05.981Z,22.07
2017-11-30T22:39:36.021Z,22.43
2017-11-30T22:42:02.411Z,21.87
2017-11-30T22:44:29.332Z,22.33
2017-11-30T22:46:55.534Z,19.70
2017-11-30T22:49:21.688Z,22.30
2017-11-30T22:51:47.848Z,21.47
2017-11-30T22:54:14.054Z,21.70
2017-11-30T22:56:40.264Z,22.30
2017-11-30T22:59:06.414Z,22.37
2017-11-30T23:01:32.597Z,21.53
2017-11-30T23:03:59.513Z,23.40
2017-11-30T23:06:25.701Z,21.80
2017-11-30T23:08:52.620Z,20.50
2017-11-30T23:11:18.797Z,21.87
2017-11-30T23:13:45.025Z,19.37
2017-11-30T23:16:11.900Z,24.20
2017-11-30T23:18:38.065Z,19.37
2017-11-30T23:21:04.236Z,21.00
2017-11-30T23:23:30.404Z,21.27
2017-11-30T23:25:56.572Z,20.60
2017-11-30T23:28:23.500Z,20.53
2017-11-30T23:30:49.720Z,28.90
2017-11-30T23:33:16.016Z,26.23
2017-11-30T23:35:42.329Z,24.87
2017-11-30T23:38:08.509Z,22.50
2017-11-30T23:40:35.564Z,20.07
2017-11-30T23:43:01.964Z,21.60
2017-11-30T23:45:28.904Z,20.00
2017-11-30T23:47:55.849Z,20.03
2017-11-30T23:50:22.054Z,22.25
2017-11-30T23:52:48.255Z,20.60
2017-11-30T23:55:14.421Z,23.25
2017-11-30T23:57:40.589Z,20.07
